sensor_id;sensor_type;location;lat;lon;timestamp;temperature;humidity
19941;DHT22;10132;50.864;5.176;2024-03-23T00:55:15;7.60;99.90
19941;DHT22;10132;50.864;5.176;2024-03-23T00:57:16;7.60;99.90
19941;DHT22;10132;50.864;5.176;2024-03-23T00:59:18;7.70;99.90
19941;DHT22;10132;50.864;5.176;2024-03-23T01:01:19;7.70;99.90
19941;DHT22;10132;50.864;5.176;2024-03-23T01:03:21;7.80;99.90
19941;DHT22;10132;50.864;5.176;2024-03-23T01:05:22;7.80;99.90
19941;DHT22;10132;50.864;5.176;2024-03-23T01:07:24;7.90;99.90
19941;DHT22;10132;50.864;5.176;2024-03-23T01:09:26;8.00;99.90
19941;DHT22;10132;50.864;5.176;2024-03-23T01:11:28;8.10;99.90
19941;DHT22;10132;50.864;5.176;2024-03-23T01:13:29;8.10;99.90
19941;DHT22;10132;50.864;5.176;2024-03-23T01:15:31;8.20;99.90
19941;DHT22;10132;50.864;5.176;2024-03-23T01:17:32;8.10;99.90
19941;DHT22;10132;50.864;5.176;2024-03-23T01:19:34;8.10;99.90
19941;DHT22;10132;50.864;5.176;2024-03-23T01:21:35;8.10;99.90
19941;DHT22;10132;50.864;5.176;2024-03-23T01:23:37;8.10;99.90
19941;DHT22;10132;50.864;5.176;2024-03-23T01:25:39;8.20;99.90
19941;DHT22;10132;50.864;5.176;2024-03-23T01:27:41;8.10;99.90
19941;DHT22;10132;50.864;5.176;2024-03-23T01:29:42;8.20;99.90
19941;DHT22;10132;50.864;5.176;2024-03-23T01:31:44;8.10;99.90
19941;DHT22;10132;50.864;5.176;2024-03-23T01:33:46;8.10;99.90
19941;DHT22;10132;50.864;5.176;2024-03-23T01:35:48;7.90;99.90
19941;DHT22;10132;50.864;5.176;2024-03-23T01:37:49;7.70;99.90
19941;DHT22;10132;50.864;5.176;2024-03-23T01:39:51;7.70;99.90
19941;DHT22;10132;50.864;5.176;2024-03-23T01:41:53;7.70;99.90
19941;DHT22;10132;50.864;5.176;2024-03-23T01:43:55;7.70;99.90
19941;DHT22;10132;50.864;5.176;2024-03-23T01:45:57;7.60;99.90
19941;DHT22;10132;50.864;5.176;2024-03-23T01:47:58;7.50;99.90
19941;DHT22;10132;50.864;5.176;2024-03-23T01:50:00;7.40;99.90
19941;DHT22;10132;50.864;5.176;2024-03-23T01:52:02;7.40;99.90
19941;DHT22;10132;50.864;5.176;2024-03-23T01:54:06;7.60;99.90
19941;DHT22;10132;50.864;5.176;2024-03-23T01:56:07;7.60;99.90
19941;DHT22;10132;50.864;5.176;2024-03-23T01:58:11;7.50;99.90
19941;DHT22;10132;50.864;5.176;2024-03-23T02:00:13;7.50;99.90
19941;DHT22;10132;50.864;5.176;2024-03-23T02:02:15;7.60;99.90
19941;DHT22;10132;50.864;5.176;2024-03-23T02:04:18;7.50;99.90
19941;DHT22;10132;50.864;5.176;2024-03-23T02:06:20;7.40;99.90
19941;DHT22;10132;50.864;5.176;2024-03-23T02:08:22;7.40;99.90
19941;DHT22;10132;50.864;5.176;2024-03-23T02:10:24;7.30;99.90
19941;DHT22;10132;50.864;5.176;2024-03-23T02:12:25;7.10;99.90
19941;DHT22;10132;50.864;5.176;2024-03-23T02:14:28;7.00;99.90
19941;DHT22;10132;50.864;5.176;2024-03-23T02:16:29;6.90;99.90
19941;DHT22;10132;50.864;5.176;2024-03-23T02:18:31;6.80;99.90
19941;DHT22;10132;50.864;5.176;2024-03-23T02:20:32;6.80;99.90
19941;DHT22;10132;50.864;5.176;2024-03-23T02:22:37;6.90;99.90
19941;DHT22;10132;50.864;5.176;2024-03-23T02:24:39;7.00;99.90
19941;DHT22;10132;50.864;5.176;2024-03-23T02:26:41;7.10;99.90
19941;DHT22;10132;50.864;5.176;2024-03-23T02:28:42;7.10;99.90
19941;DHT22;10132;50.864;5.176;2024-03-23T02:30:44;7.20;99.90
19941;DHT22;10132;50.864;5.176;2024-03-23T02:32:45;7.20;99.90
19941;DHT22;10132;50.864;5.176;2024-03-23T02:34:47;7.30;99.90
19941;DHT22;10132;50.864;5.176;2024-03-23T02:36:48;7.30;99.90
19941;DHT22;10132;50.864;5.176;2024-03-23T02:38:50;7.20;99.90
19941;DHT22;10132;50.864;5.176;2024-03-23T02:40:52;7.30;99.90
19941;DHT22;10132;50.864;5.176;2024-03-23T02:42:54;7.20;99.90
19941;DHT22;10132;50.864;5.176;2024-03-23T02:44:55;7.10;99.90
19941;DHT22;10132;50.864;5.176;2024-03-23T02:46:56;7.00;99.90
19941;DHT22;10132;50.864;5.176;2024-03-23T02:48:58;7.00;99.90
19941;DHT22;10132;50.864;5.176;2024-03-23T02:50:59;6.90;99.90
19941;DHT22;10132;50.864;5.176;2024-03-23T02:53:01;7.00;99.90
19941;DHT22;10132;50.864;5.176;2024-03-23T02:55:02;7.20;99.90
19941;DHT22;10132;50.864;5.176;2024-03-23T02:57:06;7.20;99.90
19941;DHT22;10132;50.864;5.176;2024-03-23T02:59:06;7.10;99.90
19941;DHT22;10132;50.864;5.176;2024-03-23T03:01:08;7.30;99.90
19941;DHT22;10132;50.864;5.176;2024-03-23T03:03:09;7.20;99.90
19941;DHT22;10132;50.864;5.176;2024-03-23T03:05:11;7.00;99.90
19941;DHT22;10132;50.864;5.176;2024-03-23T03:07:14;7.00;99.90
19941;DHT22;10132;50.864;5.176;2024-03-23T03:09:16;7.00;99.90
19941;DHT22;10132;50.864;5.176;2024-03-23T03:11:17;6.90;99.90
19941;DHT22;10132;50.864;5.176;2024-03-23T03:13:20;6.90;99.90
19941;DHT22;10132;50.864;5.176;2024-03-23T03:15:21;6.90;99.90
19941;DHT22;10132;50.864;5.176;2024-03-23T03:17:23;6.90;99.90
19941;DHT22;10132;50.864;5.176;2024-03-23T03:19:24;6.90;99.90
19941;DHT22;10132;50.864;5.176;2024-03-23T03:21:26;7.00;99.90
19941;DHT22;10132;50.864;5.176;2024-03-23T03:23:27;7.00;99.90
19941;DHT22;10132;50.864;5.176;2024-03-23T03:25:29;7.00;99.90
19941;DHT22;10132;50.864;5.176;2024-03-23T03:27:30;6.90;99.90
19941;DHT22;10132;50.864;5.176;2024-03-23T03:29:34;6.90;99.90
19941;DHT22;10132;50.864;5.176;2024-03-23T03:31:36;6.90;99.90
19941;DHT22;10132;50.864;5.176;2024-03-23T03:33:38;7.00;99.90
19941;DHT22;10132;50.864;5.176;2024-03-23T03:35:39;7.00;99.90
19941;DHT22;10132;50.864;5.176;2024-03-23T03:37:41;7.00;99.90
19941;DHT22;10132;50.864;5.176;2024-03-23T03:39:42;7.00;99.90
19941;DHT22;10132;50.864;5.176;2024-03-23T03:41:44;6.90;99.90
19941;DHT22;10132;50.864;5.176;2024-03-23T03:43:45;6.90;99.90
19941;DHT22;10132;50.864;5.176;2024-03-23T03:45:53;6.90;99.90
19941;DHT22;10132;50.864;5.176;2024-03-23T03:47:54;7.00;99.90
19941;DHT22;10132;50.864;5.176;2024-03-23T03:49:56;7.10;99.90
19941;DHT22;10132;50.864;5.176;2024-03-23T03:51:57;7.20;99.90
19941;DHT22;10132;50.864;5.176;2024-03-23T03:53:58;7.10;99.90
19941;DHT22;10132;50.864;5.176;2024-03-23T03:56:00;6.90;99.90
19941;DHT22;10132;50.864;5.176;2024-03-23T03:58:03;6.90;99.90
19941;DHT22;10132;50.864;5.176;2024-03-23T04:00:06;7.00;99.90
19941;DHT22;10132;50.864;5.176;2024-03-23T04:02:13;6.80;99.90
19941;DHT22;10132;50.864;5.176;2024-03-23T04:04:13;6.80;99.90
19941;DHT22;10132;50.864;5.176;2024-03-23T04:06:19;6.80;99.90
19941;DHT22;10132;50.864;5.176;2024-03-23T04:08:20;6.90;99.90
19941;DHT22;10132;50.864;5.176;2024-03-23T04:10:22;6.90;99.90
19941;DHT22;10132;50.864;5.176;2024-03-23T04:12:23;6.80;99.90
19941;DHT22;10132;50.864;5.176;2024-03-23T04:14:25;6.70;99.90
19941;DHT22;10132;50.864;5.176;2024-03-23T04:16:30;6.70;99.90
19941;DHT22;10132;50.864;5.176;2024-03-23T04:18:34;6.80;99.90
19941;DHT22;10132;50.864;5.176;2024-03-23T04:20:35;6.80;99.90
19941;DHT22;10132;50.864;5.176;2024-03-23T04:22:37;6.70;99.90
19941;DHT22;10132;50.864;5.176;2024-03-23T04:24:38;6.80;99.90
19941;DHT22;10132;50.864;5.176;2024-03-23T04:26:41;6.80;99.90
19941;DHT22;10132;50.864;5.176;2024-03-23T04:28:42;6.80;99.90
19941;DHT22;10132;50.864;5.176;2024-03-23T04:30:44;6.80;99.90
19941;DHT22;10132;50.864;5.176;2024-03-23T04:32:45;6.80;99.90
19941;DHT22;10132;50.864;5.176;2024-03-23T04:34:49;6.70;99.90
19941;DHT22;10132;50.864;5.176;2024-03-23T04:36:50;6.60;99.90
19941;DHT22;10132;50.864;5.176;2024-03-23T04:38:53;6.60;99.90
19941;DHT22;10132;50.864;5.176;2024-03-23T04:40:55;6.60;99.90
19941;DHT22;10132;50.864;5.176;2024-03-23T04:42:56;6.60;99.90
19941;DHT22;10132;50.864;5.176;2024-03-23T04:44:58;6.60;99.90
19941;DHT22;10132;50.864;5.176;2024-03-23T04:47:00;6.50;99.90
19941;DHT22;10132;50.864;5.176;2024-03-23T04:49:01;6.50;99.90
19941;DHT22;10132;50.864;5.176;2024-03-23T04:51:06;6.50;99.90
19941;DHT22;10132;50.864;5.176;2024-03-23T04:53:08;6.50;99.90
19941;DHT22;10132;50.864;5.176;2024-03-23T04:55:09;6.50;99.90
19941;DHT22;10132;50.864;5.176;2024-03-23T04:57:12;6.50;99.90
19941;DHT22;10132;50.864;5.176;2024-03-23T04:59:13;6.50;99.90
19941;DHT22;10132;50.864;5.176;2024-03-23T05:01:15;6.50;99.90
19941;DHT22;10132;50.864;5.176;2024-03-23T05:03:17;6.50;99.90
19941;DHT22;10132;50.864;5.176;2024-03-23T05:05:20;6.60;99.90
19941;DHT22;10132;50.864;5.176;2024-03-23T05:07:22;6.60;99.90
19941;DHT22;10132;50.864;5.176;2024-03-23T05:09:24;6.60;99.90
19941;DHT22;10132;50.864;5.176;2024-03-23T05:11:27;6.60;99.90
19941;DHT22;10132;50.864;5.176;2024-03-23T05:13:29;6.60;99.90
19941;DHT22;10132;50.864;5.176;2024-03-23T05:15:30;6.60;99.90
19941;DHT22;10132;50.864;5.176;2024-03-23T05:17:32;6.60;99.90
19941;DHT22;10132;50.864;5.176;2024-03-23T05:19:33;6.60;99.90
19941;DHT22;10132;50.864;5.176;2024-03-23T05:21:35;6.60;99.90
19941;DHT22;10132;50.864;5.176;2024-03-23T05:23:38;6.60;99.90
19941;DHT22;10132;50.864;5.176;2024-03-23T05:25:40;6.60;99.90
19941;DHT22;10132;50.864;5.176;2024-03-23T05:27:40;6.60;99.90
19941;DHT22;10132;50.864;5.176;2024-03-23T05:29:42;6.70;99.90
19941;DHT22;10132;50.864;5.176;2024-03-23T05:31:43;6.70;99.90
19941;DHT22;10132;50.864;5.176;2024-03-23T05:33:44;6.70;99.90
19941;DHT22;10132;50.864;5.176;2024-03-23T05:35:56;6.70;99.90
19941;DHT22;10132;50.864;5.176;2024-03-23T05:37:57;6.70;99.90
19941;DHT22;10132;50.864;5.176;2024-03-23T05:40:01;6.70;99.90
19941;DHT22;10132;50.864;5.176;2024-03-23T05:42:04;6.80;99.90
19941;DHT22;10132;50.864;5.176;2024-03-23T05:44:06;6.70;99.90
19941;DHT22;10132;50.864;5.176;2024-03-23T05:46:07;6.80;99.90
19941;DHT22;10132;50.864;5.176;2024-03-23T05:48:09;6.80;99.90
19941;DHT22;10132;50.864;5.176;2024-03-23T05:50:10;6.80;99.90
19941;DHT22;10132;50.864;5.176;2024-03-23T05:52:13;6.80;99.90
19941;DHT22;10132;50.864;5.176;2024-03-23T05:54:14;6.80;99.90
19941;DHT22;10132;50.864;5.176;2024-03-23T05:56:19;6.80;99.90
19941;DHT22;10132;50.864;5.176;2024-03-23T05:58:20;6.80;99.90
19941;DHT22;10132;50.864;5.176;2024-03-23T06:00:22;6.90;99.90
19941;DHT22;10132;50.864;5.176;2024-03-23T06:02:24;6.90;99.90
19941;DHT22;10132;50.864;5.176;2024-03-23T06:04:26;7.00;99.90
19941;DHT22;10132;50.864;5.176;2024-03-23T06:06:27;7.00;99.90
19941;DHT22;10132;50.864;5.176;2024-03-23T06:08:30;6.90;99.90
19941;DHT22;10132;50.864;5.176;2024-03-23T06:10:31;6.90;99.90
19941;DHT22;10132;50.864;5.176;2024-03-23T06:12:34;6.70;99.90
19941;DHT22;10132;50.864;5.176;2024-03-23T06:14:35;6.70;99.90
19941;DHT22;10132;50.864;5.176;2024-03-23T06:16:37;6.70;99.90
19941;DHT22;10132;50.864;5.176;2024-03-23T06:18:39;6.60;99.90
19941;DHT22;10132;50.864;5.176;2024-03-23T06:20:41;6.70;99.90
19941;DHT22;10132;50.864;5.176;2024-03-23T06:22:42;6.70;99.90
19941;DHT22;10132;50.864;5.176;2024-03-23T06:24:44;6.70;99.90
19941;DHT22;10132;50.864;5.176;2024-03-23T06:26:45;6.70;99.90
19941;DHT22;10132;50.864;5.176;2024-03-23T06:28:47;6.70;99.90
19941;DHT22;10132;50.864;5.176;2024-03-23T06:30:49;6.70;99.90
19941;DHT22;10132;50.864;5.176;2024-03-23T06:32:50;6.60;99.90
19941;DHT22;10132;50.864;5.176;2024-03-23T06:34:53;6.70;99.90
19941;DHT22;10132;50.864;5.176;2024-03-23T06:36:54;6.70;99.90
19941;DHT22;10132;50.864;5.176;2024-03-23T06:38:56;6.70;99.90
19941;DHT22;10132;50.864;5.176;2024-03-23T06:40:57;6.70;99.90
19941;DHT22;10132;50.864;5.176;2024-03-23T06:42:59;6.80;99.90
19941;DHT22;10132;50.864;5.176;2024-03-23T06:45:02;7.00;99.90
19941;DHT22;10132;50.864;5.176;2024-03-23T06:47:05;7.10;99.90
19941;DHT22;10132;50.864;5.176;2024-03-23T06:49:06;7.30;99.90
19941;DHT22;10132;50.864;5.176;2024-03-23T06:51:08;7.40;99.90
19941;DHT22;10132;50.864;5.176;2024-03-23T06:53:09;7.50;99.90
19941;DHT22;10132;50.864;5.176;2024-03-23T06:55:11;7.50;99.90
19941;DHT22;10132;50.864;5.176;2024-03-23T06:57:12;7.60;99.90
19941;DHT22;10132;50.864;5.176;2024-03-23T06:59:14;7.50;99.90
19941;DHT22;10132;50.864;5.176;2024-03-23T07:01:17;7.50;99.90
19941;DHT22;10132;50.864;5.176;2024-03-23T07:03:19;7.50;99.90
19941;DHT22;10132;50.864;5.176;2024-03-23T07:05:20;7.50;99.90
19941;DHT22;10132;50.864;5.176;2024-03-23T07:07:22;7.50;99.90
19941;DHT22;10132;50.864;5.176;2024-03-23T07:09:23;7.50;99.90
19941;DHT22;10132;50.864;5.176;2024-03-23T07:11:26;7.50;99.90
19941;DHT22;10132;50.864;5.176;2024-03-23T07:13:27;7.50;99.90
19941;DHT22;10132;50.864;5.176;2024-03-23T07:15:29;7.50;99.90
19941;DHT22;10132;50.864;5.176;2024-03-23T07:17:31;7.40;99.90
19941;DHT22;10132;50.864;5.176;2024-03-23T07:19:35;7.50;99.90
19941;DHT22;10132;50.864;5.176;2024-03-23T07:21:36;7.60;99.90
19941;DHT22;10132;50.864;5.176;2024-03-23T07:23:39;7.80;99.90
19941;DHT22;10132;50.864;5.176;2024-03-23T07:25:42;7.80;99.90
19941;DHT22;10132;50.864;5.176;2024-03-23T07:27:44;7.80;99.90
19941;DHT22;10132;50.864;5.176;2024-03-23T07:29:45;7.70;99.90
19941;DHT22;10132;50.864;5.176;2024-03-23T07:31:47;7.80;99.90
19941;DHT22;10132;50.864;5.176;2024-03-23T07:33:49;7.70;99.90
19941;DHT22;10132;50.864;5.176;2024-03-23T07:35:51;7.70;99.90
19941;DHT22;10132;50.864;5.176;2024-03-23T07:37:52;7.60;99.90
19941;DHT22;10132;50.864;5.176;2024-03-23T07:39:54;7.60;99.90
19941;DHT22;10132;50.864;5.176;2024-03-23T07:41:55;7.60;99.90
19941;DHT22;10132;50.864;5.176;2024-03-23T07:43:57;7.50;99.90
19941;DHT22;10132;50.864;5.176;2024-03-23T07:45:58;7.50;99.90
19941;DHT22;10132;50.864;5.176;2024-03-23T07:48:00;7.60;99.90
19941;DHT22;10132;50.864;5.176;2024-03-23T07:50:02;7.60;99.90
19941;DHT22;10132;50.864;5.176;2024-03-23T07:52:05;7.60;99.90
19941;DHT22;10132;50.864;5.176;2024-03-23T07:54:06;7.70;99.90
19941;DHT22;10132;50.864;5.176;2024-03-23T07:56:08;7.80;99.90
19941;DHT22;10132;50.864;5.176;2024-03-23T07:58:10;8.00;99.90
19941;DHT22;10132;50.864;5.176;2024-03-23T08:00:12;8.10;99.90
19941;DHT22;10132;50.864;5.176;2024-03-23T08:02:14;8.40;99.90
19941;DHT22;10132;50.864;5.176;2024-03-23T08:04:15;8.40;99.90
19941;DHT22;10132;50.864;5.176;2024-03-23T08:06:20;8.30;99.90
19941;DHT22;10132;50.864;5.176;2024-03-23T08:08:22;8.10;99.90
19941;DHT22;10132;50.864;5.176;2024-03-23T08:10:23;8.10;99.90
19941;DHT22;10132;50.864;5.176;2024-03-23T08:12:25;8.10;99.90
19941;DHT22;10132;50.864;5.176;2024-03-23T08:14:26;7.90;99.90
19941;DHT22;10132;50.864;5.176;2024-03-23T08:16:28;7.80;99.90
19941;DHT22;10132;50.864;5.176;2024-03-23T08:18:29;7.80;99.90
19941;DHT22;10132;50.864;5.176;2024-03-23T08:20:31;7.80;99.90
19941;DHT22;10132;50.864;5.176;2024-03-23T08:22:34;7.70;99.90
19941;DHT22;10132;50.864;5.176;2024-03-23T08:24:36;7.60;99.90
19941;DHT22;10132;50.864;5.176;2024-03-23T08:26:36;7.50;99.90
19941;DHT22;10132;50.864;5.176;2024-03-23T08:28:39;7.60;99.90
19941;DHT22;10132;50.864;5.176;2024-03-23T08:30:40;7.70;99.90
19941;DHT22;10132;50.864;5.176;2024-03-23T08:32:42;7.80;99.90
19941;DHT22;10132;50.864;5.176;2024-03-23T08:34:43;7.90;99.90
19941;DHT22;10132;50.864;5.176;2024-03-23T08:36:45;8.10;99.90
19941;DHT22;10132;50.864;5.176;2024-03-23T08:38:47;8.10;99.90
19941;DHT22;10132;50.864;5.176;2024-03-23T08:40:56;8.10;99.90
19941;DHT22;10132;50.864;5.176;2024-03-23T08:42:57;8.20;99.90
19941;DHT22;10132;50.864;5.176;2024-03-23T08:44:59;8.30;99.90
19941;DHT22;10132;50.864;5.176;2024-03-23T08:47:00;8.40;99.90
19941;DHT22;10132;50.864;5.176;2024-03-23T08:49:02;8.40;99.90
19941;DHT22;10132;50.864;5.176;2024-03-23T08:51:04;8.50;99.90
19941;DHT22;10132;50.864;5.176;2024-03-23T08:53:06;8.50;99.90
19941;DHT22;10132;50.864;5.176;2024-03-23T08:55:09;8.50;99.90
19941;DHT22;10132;50.864;5.176;2024-03-23T08:57:11;8.60;99.90
19941;DHT22;10132;50.864;5.176;2024-03-23T08:59:12;8.70;99.90
19941;DHT22;10132;50.864;5.176;2024-03-23T09:01:13;9.00;99.90
19941;DHT22;10132;50.864;5.176;2024-03-23T09:03:15;9.10;99.90
19941;DHT22;10132;50.864;5.176;2024-03-23T09:05:16;9.20;99.90
19941;DHT22;10132;50.864;5.176;2024-03-23T09:07:17;9.10;99.90
19941;DHT22;10132;50.864;5.176;2024-03-23T09:09:19;9.00;99.90
19941;DHT22;10132;50.864;5.176;2024-03-23T09:11:22;8.90;99.90
19941;DHT22;10132;50.864;5.176;2024-03-23T09:13:23;9.10;99.90
19941;DHT22;10132;50.864;5.176;2024-03-23T09:15:24;9.00;99.90
19941;DHT22;10132;50.864;5.176;2024-03-23T09:17:26;9.00;99.90
19941;DHT22;10132;50.864;5.176;2024-03-23T09:19:28;9.30;99.90
19941;DHT22;10132;50.864;5.176;2024-03-23T09:21:30;9.00;99.90
19941;DHT22;10132;50.864;5.176;2024-03-23T09:23:31;9.00;99.90
19941;DHT22;10132;50.864;5.176;2024-03-23T09:25:36;9.00;99.90
19941;DHT22;10132;50.864;5.176;2024-03-23T09:27:38;9.20;99.90
19941;DHT22;10132;50.864;5.176;2024-03-23T09:29:40;8.90;99.90
19941;DHT22;10132;50.864;5.176;2024-03-23T09:31:41;9.00;99.90
19941;DHT22;10132;50.864;5.176;2024-03-23T09:33:43;9.20;99.90
19941;DHT22;10132;50.864;5.176;2024-03-23T09:35:44;9.20;99.90
19941;DHT22;10132;50.864;5.176;2024-03-23T09:37:46;9.20;99.90
19941;DHT22;10132;50.864;5.176;2024-03-23T09:39:47;9.20;99.90
19941;DHT22;10132;50.864;5.176;2024-03-23T09:41:49;9.20;99.90
19941;DHT22;10132;50.864;5.176;2024-03-23T09:43:53;9.20;99.90
19941;DHT22;10132;50.864;5.176;2024-03-23T09:45:55;9.30;99.90
19941;DHT22;10132;50.864;5.176;2024-03-23T09:47:56;9.80;99.90
19941;DHT22;10132;50.864;5.176;2024-03-23T09:49:57;9.70;99.90
19941;DHT22;10132;50.864;5.176;2024-03-23T09:51:59;9.50;99.90
19941;DHT22;10132;50.864;5.176;2024-03-23T09:54:00;9.20;99.90
19941;DHT22;10132;50.864;5.176;2024-03-23T09:56:03;8.90;99.90
19941;DHT22;10132;50.864;5.176;2024-03-23T09:58:05;9.00;99.90
19941;DHT22;10132;50.864;5.176;2024-03-23T10:00:09;9.50;99.90
19941;DHT22;10132;50.864;5.176;2024-03-23T10:02:13;9.60;99.90
19941;DHT22;10132;50.864;5.176;2024-03-23T10:04:35;9.30;99.90
19941;DHT22;10132;50.864;5.176;2024-03-23T10:06:36;9.40;99.90
19941;DHT22;10132;50.864;5.176;2024-03-23T10:08:38;9.40;99.90
19941;DHT22;10132;50.864;5.176;2024-03-23T10:10:39;9.50;99.90
19941;DHT22;10132;50.864;5.176;2024-03-23T10:12:44;9.40;99.90
19941;DHT22;10132;50.864;5.176;2024-03-23T10:14:46;9.20;99.90
19941;DHT22;10132;50.864;5.176;2024-03-23T10:16:49;8.90;99.90
19941;DHT22;10132;50.864;5.176;2024-03-23T10:18:53;8.80;99.90
19941;DHT22;10132;50.864;5.176;2024-03-23T10:21:07;8.90;99.90
19941;DHT22;10132;50.864;5.176;2024-03-23T10:23:16;9.00;99.90
19941;DHT22;10132;50.864;5.176;2024-03-23T10:25:22;9.40;99.90
19941;DHT22;10132;50.864;5.176;2024-03-23T10:27:23;9.70;99.90
19941;DHT22;10132;50.864;5.176;2024-03-23T10:29:25;10.10;99.90
19941;DHT22;10132;50.864;5.176;2024-03-23T10:31:28;9.70;99.90
19941;DHT22;10132;50.864;5.176;2024-03-23T10:33:31;9.90;99.90
19941;DHT22;10132;50.864;5.176;2024-03-23T10:35:33;10.20;99.90
19941;DHT22;10132;50.864;5.176;2024-03-23T10:37:35;10.40;99.90
19941;DHT22;10132;50.864;5.176;2024-03-23T10:39:38;10.50;99.90
19941;DHT22;10132;50.864;5.176;2024-03-23T10:41:41;10.80;99.90
19941;DHT22;10132;50.864;5.176;2024-03-23T10:43:44;11.10;99.90
19941;DHT22;10132;50.864;5.176;2024-03-23T10:45:46;11.30;99.90
19941;DHT22;10132;50.864;5.176;2024-03-23T10:47:48;11.20;99.90
19941;DHT22;10132;50.864;5.176;2024-03-23T10:49:51;10.60;99.90
19941;DHT22;10132;50.864;5.176;2024-03-23T10:51:52;10.60;99.90
19941;DHT22;10132;50.864;5.176;2024-03-23T10:53:56;10.70;99.90
19941;DHT22;10132;50.864;5.176;2024-03-23T10:55:57;10.90;99.90
19941;DHT22;10132;50.864;5.176;2024-03-23T10:58:00;10.80;99.90
19941;DHT22;10132;50.864;5.176;2024-03-23T11:00:03;10.70;99.90
19941;DHT22;10132;50.864;5.176;2024-03-23T11:02:05;10.60;99.90
19941;DHT22;10132;50.864;5.176;2024-03-23T11:04:08;10.50;99.90
19941;DHT22;10132;50.864;5.176;2024-03-23T11:06:11;10.50;99.90
19941;DHT22;10132;50.864;5.176;2024-03-23T11:08:34;10.30;99.90
19941;DHT22;10132;50.864;5.176;2024-03-23T11:10:36;10.70;99.90
19941;DHT22;10132;50.864;5.176;2024-03-23T11:12:39;10.70;99.90
19941;DHT22;10132;50.864;5.176;2024-03-23T11:14:40;10.40;99.90
19941;DHT22;10132;50.864;5.176;2024-03-23T11:16:42;10.50;99.90
19941;DHT22;10132;50.864;5.176;2024-03-23T11:18:43;10.80;99.90
19941;DHT22;10132;50.864;5.176;2024-03-23T11:20:46;11.00;99.90
19941;DHT22;10132;50.864;5.176;2024-03-23T11:22:48;11.00;99.90
19941;DHT22;10132;50.864;5.176;2024-03-23T11:24:52;11.20;99.90
19941;DHT22;10132;50.864;5.176;2024-03-23T11:26:53;11.10;99.90
19941;DHT22;10132;50.864;5.176;2024-03-23T11:29:09;11.10;99.90
19941;DHT22;10132;50.864;5.176;2024-03-23T11:31:10;11.10;99.90
19941;DHT22;10132;50.864;5.176;2024-03-23T11:33:12;11.00;99.90
19941;DHT22;10132;50.864;5.176;2024-03-23T11:35:30;10.70;99.90
19941;DHT22;10132;50.864;5.176;2024-03-23T11:37:33;10.50;99.90
19941;DHT22;10132;50.864;5.176;2024-03-23T11:39:35;10.70;99.90
19941;DHT22;10132;50.864;5.176;2024-03-23T11:41:46;10.70;99.90
19941;DHT22;10132;50.864;5.176;2024-03-23T11:43:46;10.60;99.90
19941;DHT22;10132;50.864;5.176;2024-03-23T11:45:51;10.70;99.90
19941;DHT22;10132;50.864;5.176;2024-03-23T11:48:03;11.10;99.90
19941;DHT22;10132;50.864;5.176;2024-03-23T11:50:06;11.30;99.90
19941;DHT22;10132;50.864;5.176;2024-03-23T11:52:07;11.70;99.90
19941;DHT22;10132;50.864;5.176;2024-03-23T11:54:09;12.00;99.90
19941;DHT22;10132;50.864;5.176;2024-03-23T11:56:11;12.10;99.90
19941;DHT22;10132;50.864;5.176;2024-03-23T11:58:14;11.70;98.20
19941;DHT22;10132;50.864;5.176;2024-03-23T12:00:22;11.10;99.90
19941;DHT22;10132;50.864;5.176;2024-03-23T12:02:24;10.30;99.90
19941;DHT22;10132;50.864;5.176;2024-03-23T12:04:26;10.10;99.90
19941;DHT22;10132;50.864;5.176;2024-03-23T12:06:28;10.10;99.90
19941;DHT22;10132;50.864;5.176;2024-03-23T12:08:30;10.00;99.90
19941;DHT22;10132;50.864;5.176;2024-03-23T12:10:33;9.90;99.90
19941;DHT22;10132;50.864;5.176;2024-03-23T12:12:35;9.70;99.90
19941;DHT22;10132;50.864;5.176;2024-03-23T12:14:38;9.90;99.90
19941;DHT22;10132;50.864;5.176;2024-03-23T12:16:38;10.40;99.90
19941;DHT22;10132;50.864;5.176;2024-03-23T12:18:42;10.90;99.90
19941;DHT22;10132;50.864;5.176;2024-03-23T12:20:43;11.50;99.90
19941;DHT22;10132;50.864;5.176;2024-03-23T12:22:45;12.20;99.90
19941;DHT22;10132;50.864;5.176;2024-03-23T12:24:47;12.10;99.90
19941;DHT22;10132;50.864;5.176;2024-03-23T12:26:49;12.20;99.90
19941;DHT22;10132;50.864;5.176;2024-03-23T12:28:52;11.90;99.90
19941;DHT22;10132;50.864;5.176;2024-03-23T12:30:54;12.20;99.90
19941;DHT22;10132;50.864;5.176;2024-03-23T12:32:55;12.60;99.90
19941;DHT22;10132;50.864;5.176;2024-03-23T12:34:57;13.00;73.20
19941;DHT22;10132;50.864;5.176;2024-03-23T12:36:58;12.80;34.70
19941;DHT22;10132;50.864;5.176;2024-03-23T12:39:00;12.30;78.00
19941;DHT22;10132;50.864;5.176;2024-03-23T12:41:01;11.80;59.10
19941;DHT22;10132;50.864;5.176;2024-03-23T12:43:02;11.20;33.80
19941;DHT22;10132;50.864;5.176;2024-03-23T12:45:06;10.80;99.90
19941;DHT22;10132;50.864;5.176;2024-03-23T12:47:07;10.90;99.90
19941;DHT22;10132;50.864;5.176;2024-03-23T12:49:09;11.10;99.90
19941;DHT22;10132;50.864;5.176;2024-03-23T12:51:10;10.90;74.90
19941;DHT22;10132;50.864;5.176;2024-03-23T12:53:11;11.10;83.30
19941;DHT22;10132;50.864;5.176;2024-03-23T12:55:13;10.80;41.00
19941;DHT22;10132;50.864;5.176;2024-03-23T12:57:14;10.60;47.40
19941;DHT22;10132;50.864;5.176;2024-03-23T12:59:16;10.70;99.90
19941;DHT22;10132;50.864;5.176;2024-03-23T13:01:20;10.70;99.90
19941;DHT22;10132;50.864;5.176;2024-03-23T13:03:22;10.50;99.90
19941;DHT22;10132;50.864;5.176;2024-03-23T13:05:23;10.30;99.90
19941;DHT22;10132;50.864;5.176;2024-03-23T13:07:25;10.20;99.90
19941;DHT22;10132;50.864;5.176;2024-03-23T13:09:26;10.30;99.90
19941;DHT22;10132;50.864;5.176;2024-03-23T13:11:27;10.40;99.90
19941;DHT22;10132;50.864;5.176;2024-03-23T13:13:28;10.80;99.90
19941;DHT22;10132;50.864;5.176;2024-03-23T13:15:32;11.20;99.90
19941;DHT22;10132;50.864;5.176;2024-03-23T13:17:34;11.80;99.90
19941;DHT22;10132;50.864;5.176;2024-03-23T13:19:36;11.80;99.90
19941;DHT22;10132;50.864;5.176;2024-03-23T13:21:38;11.80;99.90
19941;DHT22;10132;50.864;5.176;2024-03-23T13:23:39;11.20;99.90
19941;DHT22;10132;50.864;5.176;2024-03-23T13:25:50;10.60;99.90
19941;DHT22;10132;50.864;5.176;2024-03-23T13:27:50;10.30;99.90
19941;DHT22;10132;50.864;5.176;2024-03-23T13:29:52;10.20;99.90
19941;DHT22;10132;50.864;5.176;2024-03-23T13:31:53;10.30;99.90
19941;DHT22;10132;50.864;5.176;2024-03-23T13:33:57;10.30;99.90
19941;DHT22;10132;50.864;5.176;2024-03-23T13:35:58;10.60;99.90
19941;DHT22;10132;50.864;5.176;2024-03-23T13:38:00;11.20;90.00
19941;DHT22;10132;50.864;5.176;2024-03-23T13:40:01;11.20;21.40
19941;DHT22;10132;50.864;5.176;2024-03-23T13:42:03;11.30;90.50
19941;DHT22;10132;50.864;5.176;2024-03-23T13:44:04;11.60;79.20
19941;DHT22;10132;50.864;5.176;2024-03-23T13:46:06;11.60;99.90
19941;DHT22;10132;50.864;5.176;2024-03-23T13:48:07;11.90;99.90
19941;DHT22;10132;50.864;5.176;2024-03-23T13:50:11;12.10;94.40
19941;DHT22;10132;50.864;5.176;2024-03-23T13:52:12;12.10;99.90
19941;DHT22;10132;50.864;5.176;2024-03-23T13:54:13;12.00;30.00
19941;DHT22;10132;50.864;5.176;2024-03-23T13:56:15;12.10;99.90